Time;durP1;ratioP1;P1;durP2;ratioP2;P2;SDS_P1;SDS_P2;PMS_P1;PMS_P2;Temp;Humidity;BMP_temperature;BMP_pressure;BME280_temperature;BME280_humidity;BME280_pressure;Samples;Min_cycle;Max_cycle;Signal;HPM_P1;HPM_P2
2023/08/06 00:00:28;;;;;;;11.33;10.33;;;;;;;14.84;93.80;97220.13;5050659;28;20545;-76
2023/08/06 00:02:55;;;;;;;10.80;9.90;;;;;;;14.85;93.87;97210.03;5051136;28;20447;-76
2023/08/06 00:05:21;;;;;;;11.40;10.50;;;;;;;14.88;93.60;97209.56;5050252;28;20480;-77
2023/08/06 00:07:49;;;;;;;12.13;11.17;;;;;;;14.90;93.57;97221.03;5050545;28;20922;-76
2023/08/06 00:10:16;;;;;;;13.20;12.10;;;;;;;14.74;93.67;97200.88;5050067;28;20989;-76
2023/08/06 00:12:43;;;;;;;9.50;8.77;;;;;;;14.74;93.96;97201.72;5050210;28;20562;-76
2023/08/06 00:15:12;;;;;;;12.60;11.60;;;;;;;14.83;93.55;97202.13;5049751;28;20486;-76
2023/08/06 00:17:39;;;;;;;12.83;11.80;;;;;;;14.77;93.60;97195.75;5050406;28;20778;-76
2023/08/06 00:20:07;;;;;;;14.30;13.10;;;;;;;14.75;93.65;97202.53;5050316;28;20525;-77
2023/08/06 00:22:34;;;;;;;12.10;11.10;;;;;;;14.71;94.03;97196.75;5050025;28;20968;-76
2023/08/06 00:25:00;;;;;;;11.90;10.90;;;;;;;14.67;93.87;97192.88;5050316;28;20445;-76
2023/08/06 00:27:27;;;;;;;15.60;14.30;;;;;;;14.69;93.80;97192.63;5050881;28;20571;-76
2023/08/06 00:29:54;;;;;;;11.60;10.70;;;;;;;14.84;93.25;97198.31;5050451;28;20455;-76
2023/08/06 00:32:22;;;;;;;12.00;11.10;;;;;;;14.76;93.07;97199.56;5050140;28;20455;-76
2023/08/06 00:34:50;;;;;;;12.23;11.23;;;;;;;14.68;93.32;97191.81;5050119;28;20438;-76
2023/08/06 00:37:17;;;;;;;11.97;10.87;;;;;;;14.65;93.46;97194.19;5049709;28;20929;-76
2023/08/06 00:39:44;;;;;;;12.53;11.53;;;;;;;14.72;92.89;97197.59;5049895;28;20435;-76
2023/08/06 00:42:11;;;;;;;15.70;14.30;;;;;;;14.57;92.99;97206.34;5050009;28;20443;-77
2023/08/06 00:44:38;;;;;;;14.57;13.17;;;;;;;14.49;93.29;97190.44;5050053;28;20454;-75
2023/08/06 00:47:06;;;;;;;12.13;11.23;;;;;;;14.43;93.97;97192.25;5050705;28;20533;-75
2023/08/06 00:49:34;;;;;;;15.97;14.57;;;;;;;14.57;93.69;97181.84;5054070;28;20447;-76
2023/08/06 00:52:01;;;;;;;18.50;16.70;;;;;;;14.60;93.55;97189.53;5053946;28;20538;-76
2023/08/06 00:54:28;;;;;;;16.13;14.80;;;;;;;14.62;93.92;97178.38;5054197;28;20474;-76
2023/08/06 00:56:55;;;;;;;18.73;16.97;;;;;;;14.40;94.46;97184.53;5053827;28;20522;-76
2023/08/06 00:59:22;;;;;;;19.87;17.97;;;;;;;14.38;94.89;97177.69;5054300;28;20533;-76
2023/08/06 01:01:50;;;;;;;16.67;15.07;;;;;;;14.48;94.69;97172.44;5053391;28;21040;-76
2023/08/06 01:04:16;;;;;;;13.83;12.67;;;;;;;14.49;94.55;97170.53;5053922;28;20461;-75
2023/08/06 01:06:49;;;;;;;18.10;16.50;;;;;;;14.50;94.19;97172.19;5054134;28;21028;-76
2023/08/06 01:09:25;;;;;;;17.73;16.23;;;;;;;14.46;94.19;97163.69;5053864;28;20442;-76
2023/08/06 01:12:00;;;;;;;13.30;12.30;;;;;;;14.57;94.04;97167.41;5053158;28;20878;-76
2023/08/06 01:14:29;;;;;;;13.60;12.40;;;;;;;14.51;93.77;97163.78;5053278;28;20453;-76
2023/08/06 01:16:57;;;;;;;12.40;11.40;;;;;;;14.40;93.84;97162.75;5053728;28;20445;-77
2023/08/06 01:19:23;;;;;;;17.87;15.97;;;;;;;14.37;93.83;97155.06;5054010;28;20454;-76
2023/08/06 01:21:51;;;;;;;21.30;19.03;;;;;;;14.22;94.67;97160.28;5053371;28;20481;-76
2023/08/06 01:24:18;;;;;;;18.67;17.03;;;;;;;14.25;95.06;97156.25;5053376;28;20437;-76
2023/08/06 01:26:49;;;;;;;16.07;14.67;;;;;;;14.41;94.59;97153.53;5053951;28;20559;-76
2023/08/06 01:29:19;;;;;;;20.60;18.70;;;;;;;14.44;94.40;97150.31;5053752;28;20462;-76
2023/08/06 01:31:49;;;;;;;18.60;17.00;;;;;;;14.45;94.35;97148.44;5053450;28;20532;-77
2023/08/06 01:34:19;;;;;;;16.50;15.00;;;;;;;14.40;94.47;97157.31;5053295;28;20537;-76
2023/08/06 01:36:46;;;;;;;24.27;21.90;;;;;;;14.37;94.35;97141.47;5053995;28;20877;-76
2023/08/06 01:39:14;;;;;;;19.77;17.83;;;;;;;14.34;94.73;97147.41;5053723;28;20483;-76
2023/08/06 01:41:41;;;;;;;67.27;26.10;;;;;;;14.36;94.33;97147.16;5053172;28;20549;-76
2023/08/06 01:44:08;;;;;;;20.17;18.37;;;;;;;14.27;95.03;97154.94;5052672;28;20457;-76
2023/08/06 01:46:34;;;;;;;27.30;23.30;;;;;;;14.32;95.04;97143.28;5052832;28;20465;-77
2023/08/06 01:49:01;;;;;;;27.17;24.27;;;;;;;14.33;94.99;97139.47;5052824;28;21157;-77
2023/08/06 01:51:28;;;;;;;29.90;26.83;;;;;;;14.37;94.85;97132.47;5052598;28;20490;-76
2023/08/06 01:53:55;;;;;;;24.07;21.67;;;;;;;14.41;94.98;97126.31;5052558;28;20489;-76
2023/08/06 01:56:23;;;;;;;31.27;27.40;;;;;;;14.40;94.56;97123.81;5052852;28;20471;-76
2023/08/06 01:58:49;;;;;;;32.30;28.57;;;;;;;14.40;94.85;97123.81;5051952;28;20457;-77
2023/08/06 02:01:16;;;;;;;21.33;19.40;;;;;;;14.45;95.04;97126.66;5052633;28;20459;-77
2023/08/06 02:03:43;;;;;;;19.30;17.50;;;;;;;14.40;94.28;97118.38;5052430;28;20505;-77
2023/08/06 02:06:10;;;;;;;23.47;21.07;;;;;;;14.00;94.85;97081.28;5052824;28;20843;-77
2023/08/06 02:08:36;;;;;;;20.40;18.50;;;;;;;14.23;94.88;97117.56;5052129;28;20493;-76
2023/08/06 02:11:03;;;;;;;17.90;16.30;;;;;;;14.16;94.42;97111.47;5051979;28;20564;-77
2023/08/06 02:13:31;;;;;;;13.33;12.23;;;;;;;14.05;94.23;97105.84;5052141;28;20453;-76
2023/08/06 02:15:58;;;;;;;10.07;9.07;;;;;;;14.08;93.63;97102.63;5052394;28;20482;-77
2023/08/06 02:18:25;;;;;;;8.87;8.17;;;;;;;14.21;92.16;97087.88;5052483;28;20512;-77
2023/08/06 02:21:01;;;;;;;8.63;7.93;;;;;;;14.09;92.68;97098.03;5052074;28;20481;-77
2023/08/06 02:23:28;;;;;;;8.30;7.50;;;;;;;14.02;92.91;97100.91;5051304;28;20936;-77
2023/08/06 02:25:59;;;;;;;7.00;6.50;;;;;;;13.87;92.52;97092.50;5051191;28;20928;-77
2023/08/06 02:28:25;;;;;;;5.60;5.20;;;;;;;13.81;92.67;97092.66;5052377;28;20549;-76
2023/08/06 02:30:53;;;;;;;6.27;5.77;;;;;;;13.77;92.82;97086.88;5051681;28;20821;-76
2023/08/06 02:33:20;;;;;;;5.93;5.53;;;;;;;13.75;92.72;97091.75;5051572;28;20442;-77
2023/08/06 02:35:47;;;;;;;7.13;6.43;;;;;;;13.58;92.83;97088.19;5051813;28;20539;-77
2023/08/06 02:38:14;;;;;;;5.67;5.17;;;;;;;13.65;92.42;97080.66;5052427;28;20850;-77
2023/08/06 02:40:44;;;;;;;6.33;5.83;;;;;;;13.61;92.31;97084.97;5052229;28;20505;-76
2023/08/06 02:43:11;;;;;;;6.03;5.53;;;;;;;13.54;92.20;97076.16;5051518;28;20451;-77
2023/08/06 02:45:38;;;;;;;4.68;4.38;;;;;;;13.68;91.37;97074.75;5051848;28;20448;-76
2023/08/06 02:48:06;;;;;;;5.53;5.03;;;;;;;13.59;91.80;97074.34;5051746;28;20240;-76
2023/08/06 02:50:38;;;;;;;4.90;4.50;;;;;;;13.65;91.35;97072.50;5051594;28;20530;-76
2023/08/06 02:53:05;;;;;;;5.23;4.83;;;;;;;13.51;92.07;97065.75;5051673;28;21001;-76
2023/08/06 02:55:33;;;;;;;5.93;5.50;;;;;;;13.55;91.75;97072.34;5051216;28;20478;-76
2023/08/06 02:58:00;;;;;;;5.67;5.20;;;;;;;13.58;91.45;97067.25;5051218;28;20893;-77
2023/08/06 03:00:27;;;;;;;5.53;5.03;;;;;;;13.57;91.99;97060.16;5051332;28;20995;-77
2023/08/06 03:02:54;;;;;;;7.20;5.93;;;;;;;13.48;91.87;97058.91;5051564;28;21022;-77
2023/08/06 03:05:21;;;;;;;5.43;4.93;;;;;;;13.50;91.61;97053.22;5051476;28;20460;-76
2023/08/06 03:07:48;;;;;;;6.07;5.63;;;;;;;13.36;92.18;97042.66;5051502;28;20650;-76
2023/08/06 03:10:15;;;;;;;5.77;5.27;;;;;;;13.58;91.45;97050.94;5050832;28;20561;-77
2023/08/06 03:12:41;;;;;;;6.03;5.43;;;;;;;13.63;91.45;97056.47;5051828;28;20521;-77
2023/08/06 03:15:09;;;;;;;11.90;4.90;;;;;;;13.66;90.92;97047.81;5051107;28;20460;-77
2023/08/06 03:17:36;;;;;;;5.37;4.87;;;;;;;13.71;90.96;97052.50;5051290;28;20456;-77
2023/08/06 03:20:03;;;;;;;6.00;5.50;;;;;;;13.74;90.70;97050.13;5051017;28;20547;-77
2023/08/06 03:22:31;;;;;;;5.97;5.57;;;;;;;13.71;91.28;97049.78;5051354;28;20899;-76
2023/08/06 03:24:58;;;;;;;6.50;5.93;;;;;;;13.70;91.23;97048.97;5051040;28;20894;-77
2023/08/06 03:27:25;;;;;;;7.27;6.57;;;;;;;13.61;91.79;97055.06;5051305;28;20474;-76
2023/08/06 03:29:52;;;;;;;6.47;6.00;;;;;;;13.63;92.33;97064.63;5051467;28;20471;-76
2023/08/06 03:32:19;;;;;;;5.90;5.40;;;;;;;13.64;92.17;97058.13;5051001;28;20464;-77
2023/08/06 03:34:45;;;;;;;6.73;6.13;;;;;;;13.79;91.57;97057.53;5050699;28;20461;-76
2023/08/06 03:37:12;;;;;;;6.90;6.20;;;;;;;13.76;92.04;97058.84;5050812;28;20450;-76
2023/08/06 03:39:41;;;;;;;6.90;6.40;;;;;;;13.79;91.67;97054.81;5051049;28;20481;-76
2023/08/06 03:42:07;;;;;;;7.50;5.87;;;;;;;13.87;91.39;97056.31;5051056;28;20506;-77
2023/08/06 03:44:34;;;;;;;6.40;5.40;;;;;;;13.98;90.95;97060.81;5050724;28;20440;-78
2023/08/06 03:47:01;;;;;;;6.03;5.53;;;;;;;13.93;90.16;97053.44;5050733;28;20453;-78
2023/08/06 03:49:28;;;;;;;6.17;5.67;;;;;;;13.91;90.86;97043.88;5050652;28;20496;-77
2023/08/06 03:51:55;;;;;;;5.63;5.23;;;;;;;13.89;90.77;97049.56;5050339;28;20445;-77
2023/08/06 03:54:21;;;;;;;6.47;5.50;;;;;;;13.91;91.25;97052.03;5049989;28;20452;-77
2023/08/06 03:56:49;;;;;;;6.67;6.17;;;;;;;14.02;90.65;97045.66;5050482;28;20537;-77
2023/08/06 03:59:16;;;;;;;6.27;5.77;;;;;;;13.82;90.95;97048.88;5050463;28;20454;-77
2023/08/06 04:01:43;;;;;;;5.97;5.47;;;;;;;14.04;90.48;97043.50;5050439;28;20512;-77
2023/08/06 04:04:09;;;;;;;6.50;5.83;;;;;;;13.93;90.46;97056.16;5050093;28;20951;-78
2023/08/06 04:06:36;;;;;;;6.00;5.60;;;;;;;13.82;91.27;97050.78;5050225;28;20451;-77
2023/08/06 04:09:03;;;;;;;5.70;5.30;;;;;;;13.92;91.03;97051.78;5050252;28;20517;-78
2023/08/06 04:11:30;;;;;;;5.23;4.83;;;;;;;13.89;90.31;97059.63;5050475;28;20798;-78
2023/08/06 04:13:58;;;;;;;4.80;4.40;;;;;;;13.98;89.69;97061.66;5049968;28;20556;-77
2023/08/06 04:16:26;;;;;;;5.73;5.27;;;;;;;14.02;89.72;97068.25;5049904;28;20480;-77
2023/08/06 04:18:55;;;;;;;5.23;4.73;;;;;;;13.91;89.45;97066.47;5049628;28;20443;-77
2023/08/06 04:21:22;;;;;;;7.57;4.77;;;;;;;13.92;90.06;97070.81;5049419;28;20462;-77
2023/08/06 04:23:49;;;;;;;4.87;4.47;;;;;;;14.00;89.85;97075.84;5049068;28;20454;-77
2023/08/06 04:26:15;;;;;;;3.90;3.50;;;;;;;14.08;88.20;97078.16;5049576;28;20478;-78
2023/08/06 04:28:42;;;;;;;3.40;3.10;;;;;;;14.04;87.24;97077.00;5049726;28;20588;-77
2023/08/06 04:31:10;;;;;;;4.80;3.53;;;;;;;14.13;87.12;97078.22;5049396;28;21096;-78
2023/08/06 04:33:37;;;;;;;4.60;3.87;;;;;;;14.12;87.20;97079.31;5048587;28;20496;-78
2023/08/06 04:36:04;;;;;;;5.60;3.63;;;;;;;14.06;87.86;97069.41;5049611;28;20565;-78
2023/08/06 04:38:31;;;;;;;4.00;3.63;;;;;;;14.08;87.85;97066.44;5049512;28;20529;-77
2023/08/06 04:40:59;;;;;;;4.43;3.63;;;;;;;14.10;88.40;97070.56;5049191;28;20470;-77
2023/08/06 04:43:26;;;;;;;4.50;4.10;;;;;;;14.25;88.30;97066.44;5049205;28;20532;-78
2023/08/06 04:45:55;;;;;;;4.13;3.20;;;;;;;14.28;87.77;97057.78;5049277;28;20475;-78
2023/08/06 04:48:23;;;;;;;6.50;3.50;;;;;;;14.25;87.95;97061.00;5048711;28;20482;-77
2023/08/06 04:50:51;;;;;;;3.30;3.03;;;;;;;14.27;87.86;97070.56;5049273;28;20813;-77
2023/08/06 04:53:17;;;;;;;3.00;2.80;;;;;;;14.40;87.28;97069.38;5049360;28;20496;-77
2023/08/06 04:55:44;;;;;;;3.57;3.27;;;;;;;14.48;88.27;97077.16;5049094;28;20450;-78
2023/08/06 04:58:11;;;;;;;3.23;2.83;;;;;;;14.42;87.25;97078.13;5048636;28;21022;-77
2023/08/06 05:00:38;;;;;;;3.50;2.70;;;;;;;14.43;87.99;97075.16;5049017;28;20520;-78
2023/08/06 05:03:06;;;;;;;3.43;2.73;;;;;;;14.38;88.94;97071.50;5049345;28;20512;-77
2023/08/06 05:05:34;;;;;;;3.13;2.93;;;;;;;14.52;88.53;97070.13;5049064;28;20533;-78
2023/08/06 05:08:01;;;;;;;4.33;2.63;;;;;;;14.48;87.42;97077.16;5048811;28;20838;-76
2023/08/06 05:10:28;;;;;;;3.60;3.10;;;;;;;14.58;87.32;97077.28;5049146;28;20554;-77
2023/08/06 05:12:55;;;;;;;2.60;2.40;;;;;;;14.44;87.33;97071.38;5049497;28;20458;-77
2023/08/06 05:15:22;;;;;;;4.80;2.30;;;;;;;14.50;87.15;97072.28;5048710;28;20533;-77
2023/08/06 05:17:49;;;;;;;3.70;2.40;;;;;;;14.59;86.88;97062.59;5049130;28;20447;-77
2023/08/06 05:20:17;;;;;;;2.43;2.23;;;;;;;14.75;87.17;97066.34;5048664;28;21007;-78
2023/08/06 05:22:45;;;;;;;3.53;2.63;;;;;;;15.00;87.54;97054.94;5049151;28;20538;-77
2023/08/06 05:25:14;;;;;;;3.77;3.00;;;;;;;15.07;85.93;97063.75;5048382;28;20443;-78
2023/08/06 05:27:41;;;;;;;3.30;2.80;;;;;;;14.96;86.90;97056.50;5048674;28;20750;-77
2023/08/06 05:30:09;;;;;;;3.60;3.10;;;;;;;14.98;86.71;97070.69;5048773;28;20557;-77
2023/08/06 05:32:36;;;;;;;2.90;2.60;;;;;;;15.14;86.60;97069.81;5048719;28;20534;-77
2023/08/06 05:35:03;;;;;;;2.60;2.40;;;;;;;15.14;85.87;97067.09;5050932;28;20474;-77
2023/08/06 05:37:29;;;;;;;2.33;2.13;;;;;;;15.07;86.52;97070.00;5052518;28;20846;-77
2023/08/06 05:39:57;;;;;;;3.77;2.50;;;;;;;15.11;86.02;97075.78;5052287;28;20467;-77
2023/08/06 05:42:24;;;;;;;2.70;2.50;;;;;;;15.14;85.81;97075.28;5052831;28;20541;-77
2023/08/06 05:44:51;;;;;;;2.70;2.47;;;;;;;15.27;85.69;97085.75;5052234;28;21099;-77
2023/08/06 05:47:19;;;;;;;2.30;2.10;;;;;;;15.14;84.17;97078.00;5052289;28;20558;-77
2023/08/06 05:49:46;;;;;;;2.43;2.23;;;;;;;15.08;85.18;97085.28;5052226;28;20501;-77
2023/08/06 05:52:13;;;;;;;3.07;2.50;;;;;;;15.12;84.98;97083.69;5052155;28;20447;-78
2023/08/06 05:54:40;;;;;;;3.63;2.60;;;;;;;15.30;84.90;97082.53;5052090;28;20490;-77
2023/08/06 05:57:09;;;;;;;3.30;2.57;;;;;;;15.34;85.19;97080.94;5052241;28;20451;-77
2023/08/06 05:59:35;;;;;;;4.43;2.77;;;;;;;15.46;84.69;97087.09;5052210;28;20455;-77
2023/08/06 06:02:02;;;;;;;3.13;2.20;;;;;;;15.42;83.84;97080.50;5051595;28;20935;-77
2023/08/06 06:04:29;;;;;;;2.40;2.20;;;;;;;15.24;83.59;97089.03;5051987;28;20542;-77
2023/08/06 06:06:56;;;;;;;2.73;2.53;;;;;;;15.19;83.57;97093.59;5051740;28;20443;-77
2023/08/06 06:09:23;;;;;;;2.30;2.10;;;;;;;15.07;83.63;97094.53;5051479;28;20660;-77
2023/08/06 06:11:50;;;;;;;2.80;1.93;;;;;;;15.04;83.63;97095.03;5051869;28;21024;-77
2023/08/06 06:14:18;;;;;;;2.70;2.07;;;;;;;15.07;83.21;97096.44;5051526;28;20447;-77
2023/08/06 06:16:45;;;;;;;2.43;2.07;;;;;;;14.85;84.24;97093.72;5051448;28;20443;-77
2023/08/06 06:19:12;;;;;;;2.13;1.93;;;;;;;14.74;85.41;97102.81;5051599;28;20592;-77
2023/08/06 06:21:39;;;;;;;2.40;1.70;;;;;;;14.78;85.75;97098.53;5051624;28;20455;-77
2023/08/06 06:24:07;;;;;;;4.17;1.73;;;;;;;14.62;86.75;97094.75;5051530;28;20446;-77
2023/08/06 06:26:34;;;;;;;2.20;1.30;;;;;;;14.66;85.73;97104.06;5051963;28;20524;-77
2023/08/06 06:29:00;;;;;;;1.10;1.00;;;;;;;14.37;86.07;97102.53;5051320;28;20534;-77
2023/08/06 06:31:28;;;;;;;2.30;1.17;;;;;;;14.19;86.52;97113.69;5051622;28;20536;-77
2023/08/06 06:33:55;;;;;;;2.37;1.33;;;;;;;14.30;86.07;97119.03;5051183;28;20530;-77
2023/08/06 06:36:23;;;;;;;1.70;1.00;;;;;;;14.39;86.37;97111.28;5050871;28;20486;-77
2023/08/06 06:38:50;;;;;;;1.57;1.13;;;;;;;14.34;85.41;97113.91;5051055;28;20915;-78
2023/08/06 06:41:17;;;;;;;1.10;0.90;;;;;;;14.21;85.32;97119.72;5051196;28;20437;-77
2023/08/06 06:43:44;;;;;;;2.40;0.80;;;;;;;14.13;86.09;97124.50;5051017;28;20541;-77
2023/08/06 06:46:10;;;;;;;1.80;1.07;;;;;;;14.03;87.46;97115.31;5050895;28;20451;-77
2023/08/06 06:48:39;;;;;;;2.13;0.90;;;;;;;14.10;86.53;97119.53;5050903;28;20913;-77
2023/08/06 06:51:05;;;;;;;3.80;1.00;;;;;;;13.90;87.98;97116.50;5050945;28;20467;-77
2023/08/06 06:53:32;;;;;;;1.37;1.00;;;;;;;13.97;87.55;97114.41;5051064;28;20439;-77
2023/08/06 06:56:04;;;;;;;1.20;0.80;;;;;;;14.09;87.33;97117.06;5051189;28;20451;-78
2023/08/06 06:58:30;;;;;;;1.07;0.83;;;;;;;14.03;87.71;97120.75;5050960;28;20652;-77
2023/08/06 07:00:57;;;;;;;1.53;0.80;;;;;;;13.90;87.28;97121.94;5050615;28;20471;-77
2023/08/06 07:03:24;;;;;;;1.00;0.80;;;;;;;13.82;86.79;97119.59;5050750;28;20446;-77
2023/08/06 07:05:52;;;;;;;1.10;0.80;;;;;;;14.01;86.31;97120.19;5050968;28;20937;-77
2023/08/06 07:08:19;;;;;;;1.10;0.90;;;;;;;14.15;86.09;97112.53;5050817;28;20456;-77
2023/08/06 07:10:46;;;;;;;0.83;0.73;;;;;;;14.22;85.20;97113.19;5050835;28;20480;-77
2023/08/06 07:13:13;;;;;;;1.50;0.80;;;;;;;14.15;85.33;97121.53;5050654;28;20496;-77
2023/08/06 07:15:39;;;;;;;0.90;0.67;;;;;;;14.31;84.27;97114.41;5050244;28;20439;-78
2023/08/06 07:18:06;;;;;;;1.00;0.87;;;;;;;14.32;83.90;97119.59;5050446;28;20547;-77
2023/08/06 07:20:34;;;;;;;1.20;0.60;;;;;;;14.24;83.98;97128.22;5050708;28;20560;-77
2023/08/06 07:23:02;;;;;;;2.50;0.80;;;;;;;14.22;84.70;97126.81;5050487;28;20446;-77
2023/08/06 07:25:29;;;;;;;0.80;0.63;;;;;;;14.27;84.09;97130.44;5050088;28;20587;-77
2023/08/06 07:27:57;;;;;;;1.00;0.60;;;;;;;14.15;83.12;97137.03;5050403;28;20511;-78
2023/08/06 07:30:24;;;;;;;0.70;0.60;;;;;;;14.21;83.87;97136.03;5050435;28;20556;-77
2023/08/06 07:32:51;;;;;;;2.10;0.80;;;;;;;14.19;84.53;97130.84;5050265;28;20476;-77
2023/08/06 07:35:17;;;;;;;1.37;0.60;;;;;;;14.16;84.19;97138.69;5050096;28;20460;-77
2023/08/06 07:37:44;;;;;;;2.30;0.50;;;;;;;14.09;83.92;97133.38;5050433;28;20544;-77
2023/08/06 07:40:13;;;;;;;0.87;0.60;;;;;;;14.17;83.80;97132.16;5050077;28;20472;-77
2023/08/06 07:42:40;;;;;;;0.70;0.50;;;;;;;14.12;83.52;97136.44;5049967;28;20456;-77
2023/08/06 07:45:08;;;;;;;1.00;0.60;;;;;;;14.29;83.72;97132.91;5049858;28;20533;-77
2023/08/06 07:47:35;;;;;;;0.60;0.50;;;;;;;14.36;83.83;97122.66;5050375;28;20830;-77
2023/08/06 07:50:02;;;;;;;0.73;0.60;;;;;;;14.48;83.74;97123.44;5049335;28;21056;-77
2023/08/06 07:52:29;;;;;;;1.20;0.60;;;;;;;14.38;83.76;97120.50;5050113;28;20478;-77
2023/08/06 07:54:55;;;;;;;0.80;0.70;;;;;;;14.41;83.73;97120.06;5049717;28;20449;-77
2023/08/06 07:57:23;;;;;;;2.30;0.70;;;;;;;14.50;83.62;97124.00;5048020;28;20941;-77
2023/08/06 07:59:50;;;;;;;1.17;0.60;;;;;;;14.43;83.32;97131.50;5051615;28;20659;-77
2023/08/06 08:02:17;;;;;;;1.90;0.67;;;;;;;14.35;84.12;97135.44;5050049;28;20450;-76
2023/08/06 08:04:44;;;;;;;0.60;0.50;;;;;;;14.44;84.51;97130.44;5049709;28;20482;-77
2023/08/06 08:07:10;;;;;;;1.17;0.80;;;;;;;14.50;84.60;97118.56;5049805;28;20955;-76
2023/08/06 08:09:37;;;;;;;1.27;0.60;;;;;;;14.62;84.24;97124.72;5049591;28;21069;-76
2023/08/06 08:12:05;;;;;;;0.93;0.70;;;;;;;14.68;83.54;97121.00;5049958;28;20443;-77
2023/08/06 08:14:35;;;;;;;1.97;0.90;;;;;;;14.68;84.04;97114.72;5049200;28;20455;-76
2023/08/06 08:17:05;;;;;;;0.73;0.63;;;;;;;14.94;83.58;97111.28;5049738;28;20439;-77
2023/08/06 08:19:32;;;;;;;1.80;0.70;;;;;;;15.73;81.55;97121.75;5049427;28;20542;-76
2023/08/06 08:21:59;;;;;;;0.70;0.60;;;;;;;16.03;77.89;97116.56;5049300;28;20447;-77
2023/08/06 08:24:26;;;;;;;1.63;0.60;;;;;;;15.96;78.59;97105.03;5049425;28;20451;-77
2023/08/06 08:26:53;;;;;;;0.80;0.70;;;;;;;15.93;77.67;97105.56;5049238;28;20791;-76
2023/08/06 08:29:21;;;;;;;0.60;0.50;;;;;;;15.79;77.87;97115.25;5049471;28;20482;-77
2023/08/06 08:31:50;;;;;;;0.50;0.50;;;;;;;15.92;76.93;97108.56;5049471;28;20486;-77
2023/08/06 08:34:16;;;;;;;0.90;0.60;;;;;;;15.86;77.00;97098.69;5049022;28;20877;-77
2023/08/06 08:36:43;;;;;;;0.90;0.67;;;;;;;15.78;78.11;97106.25;5049092;28;20880;-76
2023/08/06 08:39:10;;;;;;;0.70;0.50;;;;;;;15.95;77.69;97108.03;5049193;28;20472;-76
2023/08/06 08:41:38;;;;;;;0.70;0.60;;;;;;;16.18;76.98;97109.63;5048983;28;20451;-76
2023/08/06 08:44:09;;;;;;;0.60;0.50;;;;;;;15.95;76.44;97102.56;5049248;28;20535;-76
2023/08/06 08:46:37;;;;;;;0.60;0.50;;;;;;;15.85;77.53;97107.97;5049465;28;20561;-77
2023/08/06 08:49:06;;;;;;;3.00;0.60;;;;;;;15.75;77.00;97117.69;5048702;28;20470;-76
2023/08/06 08:51:34;;;;;;;0.70;0.60;;;;;;;15.67;77.10;97109.13;5049107;28;20458;-77
2023/08/06 08:54:04;;;;;;;0.57;0.40;;;;;;;15.75;78.20;97108.69;5048999;28;20525;-76
2023/08/06 08:56:31;;;;;;;0.77;0.57;;;;;;;15.86;77.20;97115.88;5049232;28;20447;-76
2023/08/06 08:58:58;;;;;;;0.60;0.50;;;;;;;15.72;77.63;97110.00;5048942;28;20494;-76
2023/08/06 09:01:25;;;;;;;0.60;0.50;;;;;;;15.25;80.61;97114.38;5049002;28;20435;-76
2023/08/06 09:03:53;;;;;;;0.97;0.57;;;;;;;14.85;82.56;97114.69;5048624;28;20487;-76
2023/08/06 09:06:22;;;;;;;0.87;0.50;;;;;;;14.64;85.86;97124.47;5048936;28;20489;-77
2023/08/06 09:08:54;;;;;;;0.70;0.50;;;;;;;14.52;86.76;97127.31;5050934;28;20500;-78
2023/08/06 09:11:21;;;;;;;0.53;0.40;;;;;;;14.38;87.37;97134.13;5053106;28;20516;-77
2023/08/06 09:13:48;;;;;;;0.60;0.50;;;;;;;14.26;88.17;97131.50;5052396;28;20926;-77
2023/08/06 09:16:15;;;;;;;0.80;0.50;;;;;;;14.21;87.54;97127.88;5052890;28;20493;-77
2023/08/06 09:18:42;;;;;;;1.13;0.40;;;;;;;14.20;87.56;97135.22;5052687;28;20462;-77
2023/08/06 09:21:14;;;;;;;0.60;0.50;;;;;;;14.21;87.77;97147.75;5053030;28;20443;-77
2023/08/06 09:23:43;;;;;;;1.70;0.60;;;;;;;14.18;88.80;97140.09;5052636;28;20474;-77
2023/08/06 09:26:12;;;;;;;0.73;0.50;;;;;;;14.23;87.98;97140.16;5052489;28;20458;-77
2023/08/06 09:28:41;;;;;;;1.00;0.50;;;;;;;14.40;87.30;97151.03;5052438;28;20461;-77
2023/08/06 09:31:09;;;;;;;0.50;0.50;;;;;;;14.32;88.55;97132.38;5052546;28;20524;-77
2023/08/06 09:33:37;;;;;;;0.60;0.40;;;;;;;14.39;89.16;97149.38;5052191;28;20942;-77
2023/08/06 09:36:08;;;;;;;0.70;0.70;;;;;;;14.47;87.88;97140.84;5052637;28;20519;-77
2023/08/06 09:38:39;;;;;;;0.50;0.50;;;;;;;14.53;86.92;97139.84;5052644;28;20532;-77
2023/08/06 09:41:07;;;;;;;0.87;0.47;;;;;;;14.44;87.07;97141.34;5052668;28;20450;-77
2023/08/06 09:43:40;;;;;;;0.90;0.50;;;;;;;14.64;87.73;97141.63;5052121;28;21018;-78
2023/08/06 09:46:12;;;;;;;2.03;0.80;;;;;;;14.56;87.02;97141.25;5052375;28;20439;-78
2023/08/06 09:48:40;;;;;;;0.53;0.43;;;;;;;14.49;88.21;97149.59;5051937;28;21203;-77
2023/08/06 09:51:09;;;;;;;0.60;0.40;;;;;;;14.62;87.65;97157.38;5052250;28;20528;-77
2023/08/06 09:53:37;;;;;;;0.80;0.50;;;;;;;14.49;88.72;97152.31;5052061;28;20505;-77
2023/08/06 09:56:04;;;;;;;0.60;0.50;;;;;;;14.57;86.87;97121.94;5051925;28;20938;-78
2023/08/06 09:58:33;;;;;;;0.50;0.40;;;;;;;14.76;86.12;97150.53;5051517;28;20491;-78
2023/08/06 10:01:01;;;;;;;0.70;0.40;;;;;;;14.77;84.63;97135.00;5050846;28;21203;-78
2023/08/06 10:03:28;;;;;;;0.50;0.43;;;;;;;14.65;83.83;97142.44;5050956;28;20911;-77
2023/08/06 10:05:56;;;;;;;1.20;0.50;;;;;;;14.59;84.68;97149.75;5051311;28;20463;-77
2023/08/06 10:08:23;;;;;;;0.50;0.40;;;;;;;14.65;84.07;97175.13;5051492;28;20549;-78
2023/08/06 10:10:50;;;;;;;0.70;0.50;;;;;;;14.65;84.68;97158.78;5050838;28;20494;-78
2023/08/06 10:13:19;;;;;;;0.50;0.40;;;;;;;14.77;83.28;97162.25;5050886;28;20925;-77
2023/08/06 10:15:47;;;;;;;0.50;0.50;;;;;;;14.90;83.22;97151.00;5050974;28;20538;-77
2023/08/06 10:18:17;;;;;;;0.50;0.40;;;;;;;15.10;82.10;97139.53;5051101;28;20450;-77
2023/08/06 10:20:44;;;;;;;0.50;0.50;;;;;;;15.15;79.86;97141.50;5050402;28;20558;-77
2023/08/06 10:23:13;;;;;;;0.50;0.40;;;;;;;15.23;78.66;97149.25;5050702;28;20960;-77
2023/08/06 10:25:41;;;;;;;0.50;0.50;;;;;;;15.34;79.33;97142.81;5050381;28;20447;-76
2023/08/06 10:28:10;;;;;;;0.60;0.40;;;;;;;15.50;78.66;97141.13;5050861;28;20459;-76
2023/08/06 10:30:43;;;;;;;0.60;0.50;;;;;;;15.67;78.71;97141.88;5050641;28;20540;-76
2023/08/06 10:33:11;;;;;;;0.80;0.43;;;;;;;15.66;77.45;97137.50;5050928;28;20459;-77
2023/08/06 10:35:43;;;;;;;0.63;0.50;;;;;;;15.63;76.39;97154.38;5051315;28;20440;-76
2023/08/06 10:38:11;;;;;;;0.50;0.47;;;;;;;15.50;76.12;97139.22;5050880;28;20523;-76
2023/08/06 10:40:40;;;;;;;0.50;0.40;;;;;;;15.55;76.76;97154.81;5051029;28;21050;-76
2023/08/06 10:43:08;;;;;;;0.70;0.50;;;;;;;15.55;76.73;97149.34;5051391;28;20492;-76
2023/08/06 10:45:35;;;;;;;0.60;0.50;;;;;;;15.63;76.83;97157.09;5051008;28;20848;-76
2023/08/06 10:48:03;;;;;;;0.90;0.40;;;;;;;15.62;75.63;97152.72;5051156;28;20454;-77
2023/08/06 10:50:32;;;;;;;0.60;0.50;;;;;;;15.76;76.62;97162.16;5050707;28;20502;-77
2023/08/06 10:52:59;;;;;;;0.70;0.50;;;;;;;15.75;75.96;97165.97;5051166;28;20443;-77
2023/08/06 10:55:27;;;;;;;0.60;0.50;;;;;;;15.70;75.38;97168.63;5050691;28;20490;-77
2023/08/06 10:57:55;;;;;;;0.63;0.63;;;;;;;15.65;76.02;97168.56;5050891;28;20487;-76
2023/08/06 11:00:22;;;;;;;0.80;0.50;;;;;;;15.24;77.03;97189.91;5050705;28;20826;-77
2023/08/06 11:02:49;;;;;;;0.60;0.50;;;;;;;15.06;77.95;97185.56;5051005;28;20448;-77
2023/08/06 11:05:16;;;;;;;0.60;0.60;;;;;;;14.98;79.07;97201.50;5050841;28;20553;-77
2023/08/06 11:07:45;;;;;;;0.80;0.70;;;;;;;14.77;77.89;97200.38;5051034;28;20465;-77
2023/08/06 11:10:13;;;;;;;1.53;0.80;;;;;;;14.44;79.19;97214.84;5050264;28;20485;-77
2023/08/06 11:12:40;;;;;;;0.80;0.80;;;;;;;14.30;80.98;97208.03;5050725;28;20512;-77
2023/08/06 11:15:08;;;;;;;0.80;0.70;;;;;;;14.27;81.49;97211.28;5050329;28;20538;-77
2023/08/06 11:17:35;;;;;;;1.30;1.17;;;;;;;14.34;82.36;97198.31;5050401;28;20453;-77
2023/08/06 11:20:04;;;;;;;1.30;1.00;;;;;;;14.43;82.85;97211.28;5050610;28;20493;-78
2023/08/06 11:22:31;;;;;;;1.53;0.90;;;;;;;14.53;81.68;97221.53;5049973;28;20518;-78
2023/08/06 11:25:00;;;;;;;0.90;0.90;;;;;;;14.49;81.18;97220.38;5050199;28;20450;-78
2023/08/06 11:27:28;;;;;;;1.00;0.90;;;;;;;14.49;80.95;97209.50;5050336;28;20814;-77
2023/08/06 11:29:55;;;;;;;0.80;0.80;;;;;;;14.52;80.28;97213.63;5050135;28;20457;-77